sensor_id;sensor_type;location;lat;lon;timestamp;P1;durP1;ratioP1;P2;durP2;ratioP2
3991;SDS011;2010;48.194;16.394;2023-06-10T00:01:19;5.90;;;5.50;;
3991;SDS011;2010;48.194;16.394;2023-06-10T00:03:49;5.33;;;4.83;;
3991;SDS011;2010;48.194;16.394;2023-06-10T00:06:21;5.90;;;5.50;;
3991;SDS011;2010;48.194;16.394;2023-06-10T00:08:59;5.40;;;5.00;;
3991;SDS011;2010;48.194;16.394;2023-06-10T00:11:33;5.73;;;4.63;;
3991;SDS011;2010;48.194;16.394;2023-06-10T00:14:02;5.23;;;4.73;;
3991;SDS011;2010;48.194;16.394;2023-06-10T00:16:31;5.50;;;4.87;;
3991;SDS011;2010;48.194;16.394;2023-06-10T00:19:00;7.10;;;5.87;;
3991;SDS011;2010;48.194;16.394;2023-06-10T00:21:32;5.80;;;5.30;;
3991;SDS011;2010;48.194;16.394;2023-06-10T00:24:07;5.57;;;4.97;;
3991;SDS011;2010;48.194;16.394;2023-06-10T00:26:45;6.27;;;5.20;;
3991;SDS011;2010;48.194;16.394;2023-06-10T00:29:22;5.47;;;4.97;;
3991;SDS011;2010;48.194;16.394;2023-06-10T00:31:56;5.40;;;4.97;;
3991;SDS011;2010;48.194;16.394;2023-06-10T00:34:30;6.10;;;4.73;;
3991;SDS011;2010;48.194;16.394;2023-06-10T00:37:09;5.57;;;5.07;;
3991;SDS011;2010;48.194;16.394;2023-06-10T00:39:45;5.50;;;5.10;;
3991;SDS011;2010;48.194;16.394;2023-06-10T00:42:19;5.53;;;4.80;;
3991;SDS011;2010;48.194;16.394;2023-06-10T00:44:51;5.20;;;4.80;;
3991;SDS011;2010;48.194;16.394;2023-06-10T00:47:21;5.00;;;4.60;;
3991;SDS011;2010;48.194;16.394;2023-06-10T00:49:54;5.80;;;5.30;;
3991;SDS011;2010;48.194;16.394;2023-06-10T00:52:30;8.60;;;5.23;;
3991;SDS011;2010;48.194;16.394;2023-06-10T00:55:02;7.10;;;6.43;;
3991;SDS011;2010;48.194;16.394;2023-06-10T00:57:45;5.80;;;5.30;;
3991;SDS011;2010;48.194;16.394;2023-06-10T01:00:17;6.23;;;5.67;;
3991;SDS011;2010;48.194;16.394;2023-06-10T01:02:55;9.43;;;5.10;;
3991;SDS011;2010;48.194;16.394;2023-06-10T01:05:26;6.90;;;6.30;;
3991;SDS011;2010;48.194;16.394;2023-06-10T01:07:59;6.30;;;5.53;;
3991;SDS011;2010;48.194;16.394;2023-06-10T01:10:37;6.10;;;5.60;;
3991;SDS011;2010;48.194;16.394;2023-06-10T01:13:18;6.53;;;5.93;;
3991;SDS011;2010;48.194;16.394;2023-06-10T01:15:51;7.00;;;6.40;;
3991;SDS011;2010;48.194;16.394;2023-06-10T01:18:22;6.80;;;6.20;;
3991;SDS011;2010;48.194;16.394;2023-06-10T01:20:58;7.33;;;6.73;;
3991;SDS011;2010;48.194;16.394;2023-06-10T01:23:33;7.37;;;6.67;;
3991;SDS011;2010;48.194;16.394;2023-06-10T01:26:02;7.37;;;6.67;;
3991;SDS011;2010;48.194;16.394;2023-06-10T01:28:37;7.20;;;6.60;;
3991;SDS011;2010;48.194;16.394;2023-06-10T01:31:15;7.60;;;6.90;;
3991;SDS011;2010;48.194;16.394;2023-06-10T01:33:49;7.93;;;7.23;;
3991;SDS011;2010;48.194;16.394;2023-06-10T01:36:24;7.90;;;7.20;;
3991;SDS011;2010;48.194;16.394;2023-06-10T01:38:56;9.53;;;7.37;;
3991;SDS011;2010;48.194;16.394;2023-06-10T01:41:34;10.10;;;7.40;;
3991;SDS011;2010;48.194;16.394;2023-06-10T01:44:12;9.63;;;7.53;;
3991;SDS011;2010;48.194;16.394;2023-06-10T01:46:47;8.73;;;7.93;;
3991;SDS011;2010;48.194;16.394;2023-06-10T01:49:17;8.43;;;7.70;;
3991;SDS011;2010;48.194;16.394;2023-06-10T01:51:51;8.70;;;7.90;;
3991;SDS011;2010;48.194;16.394;2023-06-10T01:54:31;9.33;;;8.43;;
3991;SDS011;2010;48.194;16.394;2023-06-10T01:57:03;9.23;;;8.33;;
3991;SDS011;2010;48.194;16.394;2023-06-10T01:59:33;8.87;;;7.97;;
3991;SDS011;2010;48.194;16.394;2023-06-10T02:02:05;8.33;;;7.53;;
3991;SDS011;2010;48.194;16.394;2023-06-10T02:04:41;14.77;;;9.07;;
3991;SDS011;2010;48.194;16.394;2023-06-10T02:07:10;10.33;;;9.33;;
3991;SDS011;2010;48.194;16.394;2023-06-10T02:09:50;12.00;;;8.73;;
3991;SDS011;2010;48.194;16.394;2023-06-10T02:12:23;12.23;;;8.63;;
3991;SDS011;2010;48.194;16.394;2023-06-10T02:14:52;9.23;;;8.43;;
3991;SDS011;2010;48.194;16.394;2023-06-10T02:17:24;10.27;;;8.30;;
3991;SDS011;2010;48.194;16.394;2023-06-10T02:19:55;9.53;;;8.60;;
3991;SDS011;2010;48.194;16.394;2023-06-10T02:22:26;11.67;;;8.90;;
3991;SDS011;2010;48.194;16.394;2023-06-10T02:24:56;9.90;;;8.97;;
3991;SDS011;2010;48.194;16.394;2023-06-10T02:27:28;10.10;;;8.80;;
3991;SDS011;2010;48.194;16.394;2023-06-10T02:29:57;10.27;;;9.20;;
3991;SDS011;2010;48.194;16.394;2023-06-10T02:32:33;10.93;;;9.83;;
3991;SDS011;2010;48.194;16.394;2023-06-10T02:35:03;11.00;;;9.50;;
3991;SDS011;2010;48.194;16.394;2023-06-10T02:37:40;10.30;;;9.40;;
3991;SDS011;2010;48.194;16.394;2023-06-10T02:40:15;10.50;;;9.60;;
3991;SDS011;2010;48.194;16.394;2023-06-10T02:42:44;14.17;;;9.93;;
3991;SDS011;2010;48.194;16.394;2023-06-10T02:45:20;11.17;;;10.07;;
3991;SDS011;2010;48.194;16.394;2023-06-10T02:47:55;11.70;;;10.60;;
3991;SDS011;2010;48.194;16.394;2023-06-10T02:50:26;11.17;;;9.80;;
3991;SDS011;2010;48.194;16.394;2023-06-10T02:53:18;11.37;;;10.27;;
3991;SDS011;2010;48.194;16.394;2023-06-10T02:55:58;11.10;;;10.10;;
3991;SDS011;2010;48.194;16.394;2023-06-10T02:58:27;12.37;;;11.20;;
3991;SDS011;2010;48.194;16.394;2023-06-10T03:00:57;11.47;;;10.23;;
3991;SDS011;2010;48.194;16.394;2023-06-10T03:03:35;12.57;;;10.83;;
3991;SDS011;2010;48.194;16.394;2023-06-10T03:06:09;11.10;;;10.10;;
3991;SDS011;2010;48.194;16.394;2023-06-10T03:08:40;13.03;;;11.83;;
3991;SDS011;2010;48.194;16.394;2023-06-10T03:11:17;13.33;;;11.90;;
3991;SDS011;2010;48.194;16.394;2023-06-10T03:13:50;11.97;;;10.70;;
3991;SDS011;2010;48.194;16.394;2023-06-10T03:16:24;13.07;;;11.30;;
3991;SDS011;2010;48.194;16.394;2023-06-10T03:19:00;13.70;;;11.53;;
3991;SDS011;2010;48.194;16.394;2023-06-10T03:21:38;10.73;;;9.73;;
3991;SDS011;2010;48.194;16.394;2023-06-10T03:24:08;11.70;;;10.50;;
3991;SDS011;2010;48.194;16.394;2023-06-10T03:26:52;11.67;;;10.53;;
3991;SDS011;2010;48.194;16.394;2023-06-10T03:29:29;12.40;;;10.27;;
3991;SDS011;2010;48.194;16.394;2023-06-10T03:32:04;10.40;;;9.40;;
3991;SDS011;2010;48.194;16.394;2023-06-10T03:34:37;12.67;;;9.60;;
3991;SDS011;2010;48.194;16.394;2023-06-10T03:37:10;13.40;;;9.93;;
3991;SDS011;2010;48.194;16.394;2023-06-10T03:39:46;12.90;;;11.20;;
3991;SDS011;2010;48.194;16.394;2023-06-10T03:42:17;10.50;;;9.50;;
3991;SDS011;2010;48.194;16.394;2023-06-10T03:44:50;12.17;;;11.07;;
3991;SDS011;2010;48.194;16.394;2023-06-10T03:47:19;12.27;;;9.30;;
3991;SDS011;2010;48.194;16.394;2023-06-10T03:49:51;12.77;;;11.47;;
3991;SDS011;2010;48.194;16.394;2023-06-10T03:52:23;11.23;;;10.23;;
3991;SDS011;2010;48.194;16.394;2023-06-10T03:54:51;11.87;;;10.73;;
3991;SDS011;2010;48.194;16.394;2023-06-10T03:57:22;16.27;;;11.70;;
3991;SDS011;2010;48.194;16.394;2023-06-10T04:00:03;10.23;;;9.23;;
3991;SDS011;2010;48.194;16.394;2023-06-10T04:02:42;12.57;;;11.37;;
3991;SDS011;2010;48.194;16.394;2023-06-10T04:05:25;13.87;;;12.33;;
3991;SDS011;2010;48.194;16.394;2023-06-10T04:07:58;15.23;;;12.73;;
3991;SDS011;2010;48.194;16.394;2023-06-10T04:10:28;14.40;;;12.97;;
3991;SDS011;2010;48.194;16.394;2023-06-10T04:13:00;17.10;;;12.63;;
3991;SDS011;2010;48.194;16.394;2023-06-10T04:15:36;14.73;;;13.33;;
3991;SDS011;2010;48.194;16.394;2023-06-10T04:18:11;13.70;;;12.30;;
3991;SDS011;2010;48.194;16.394;2023-06-10T04:20:46;15.17;;;13.63;;
3991;SDS011;2010;48.194;16.394;2023-06-10T04:23:16;16.47;;;14.87;;
3991;SDS011;2010;48.194;16.394;2023-06-10T04:25:47;15.33;;;13.77;;
3991;SDS011;2010;48.194;16.394;2023-06-10T04:28:33;16.57;;;14.87;;
3991;SDS011;2010;48.194;16.394;2023-06-10T04:31:04;17.53;;;15.63;;
3991;SDS011;2010;48.194;16.394;2023-06-10T04:33:34;16.10;;;14.40;;
3991;SDS011;2010;48.194;16.394;2023-06-10T04:36:14;18.07;;;15.33;;
3991;SDS011;2010;48.194;16.394;2023-06-10T04:38:44;17.97;;;14.60;;
3991;SDS011;2010;48.194;16.394;2023-06-10T04:41:12;16.77;;;15.00;;
3991;SDS011;2010;48.194;16.394;2023-06-10T04:43:55;17.67;;;15.10;;
3991;SDS011;2010;48.194;16.394;2023-06-10T04:46:27;15.93;;;14.43;;
3991;SDS011;2010;48.194;16.394;2023-06-10T04:48:58;14.43;;;12.97;;
3991;SDS011;2010;48.194;16.394;2023-06-10T04:51:29;16.57;;;14.10;;
3991;SDS011;2010;48.194;16.394;2023-06-10T04:54:01;15.10;;;13.07;;
3991;SDS011;2010;48.194;16.394;2023-06-10T04:56:31;16.93;;;14.47;;
3991;SDS011;2010;48.194;16.394;2023-06-10T04:59:02;18.13;;;14.93;;
3991;SDS011;2010;48.194;16.394;2023-06-10T05:01:32;18.60;;;16.60;;
3991;SDS011;2010;48.194;16.394;2023-06-10T05:04:01;17.17;;;15.37;;
3991;SDS011;2010;48.194;16.394;2023-06-10T05:06:32;18.00;;;15.40;;
3991;SDS011;2010;48.194;16.394;2023-06-10T05:09:04;17.60;;;16.00;;
3991;SDS011;2010;48.194;16.394;2023-06-10T05:11:32;18.93;;;16.27;;
3991;SDS011;2010;48.194;16.394;2023-06-10T05:14:14;17.73;;;15.73;;
3991;SDS011;2010;48.194;16.394;2023-06-10T05:16:43;20.57;;;16.17;;
3991;SDS011;2010;48.194;16.394;2023-06-10T05:19:12;16.27;;;14.60;;
3991;SDS011;2010;48.194;16.394;2023-06-10T05:21:51;17.93;;;16.03;;
3991;SDS011;2010;48.194;16.394;2023-06-10T05:24:23;17.37;;;15.57;;
3991;SDS011;2010;48.194;16.394;2023-06-10T05:26:59;17.40;;;14.23;;
3991;SDS011;2010;48.194;16.394;2023-06-10T05:29:35;19.90;;;15.57;;
3991;SDS011;2010;48.194;16.394;2023-06-10T05:32:08;17.93;;;16.23;;
3991;SDS011;2010;48.194;16.394;2023-06-10T05:34:49;18.50;;;15.90;;
3991;SDS011;2010;48.194;16.394;2023-06-10T05:37:17;18.53;;;15.40;;
3991;SDS011;2010;48.194;16.394;2023-06-10T05:39:49;16.27;;;14.37;;
3991;SDS011;2010;48.194;16.394;2023-06-10T05:42:18;18.80;;;16.17;;
3991;SDS011;2010;48.194;16.394;2023-06-10T05:44:50;16.20;;;14.60;;
3991;SDS011;2010;48.194;16.394;2023-06-10T05:47:21;16.30;;;14.07;;
3991;SDS011;2010;48.194;16.394;2023-06-10T05:49:53;18.30;;;16.40;;
3991;SDS011;2010;48.194;16.394;2023-06-10T05:52:24;19.47;;;16.40;;
3991;SDS011;2010;48.194;16.394;2023-06-10T05:55:00;24.87;;;19.30;;
3991;SDS011;2010;48.194;16.394;2023-06-10T05:57:31;21.03;;;18.63;;
3991;SDS011;2010;48.194;16.394;2023-06-10T06:00:18;22.50;;;19.43;;
3991;SDS011;2010;48.194;16.394;2023-06-10T06:02:50;20.80;;;17.47;;
3991;SDS011;2010;48.194;16.394;2023-06-10T06:05:22;21.27;;;19.00;;
3991;SDS011;2010;48.194;16.394;2023-06-10T06:07:52;20.13;;;18.07;;
3991;SDS011;2010;48.194;16.394;2023-06-10T06:10:27;28.93;;;18.67;;
3991;SDS011;2010;48.194;16.394;2023-06-10T06:12:56;24.00;;;19.17;;
3991;SDS011;2010;48.194;16.394;2023-06-10T06:15:35;20.10;;;17.40;;
3991;SDS011;2010;48.194;16.394;2023-06-10T06:18:04;27.43;;;18.87;;
3991;SDS011;2010;48.194;16.394;2023-06-10T06:20:36;25.40;;;19.70;;
3991;SDS011;2010;48.194;16.394;2023-06-10T06:23:09;19.30;;;17.20;;
3991;SDS011;2010;48.194;16.394;2023-06-10T06:25:41;22.73;;;19.57;;
3991;SDS011;2010;48.194;16.394;2023-06-10T06:28:13;22.50;;;19.27;;
3991;SDS011;2010;48.194;16.394;2023-06-10T06:31:10;26.00;;;21.33;;
3991;SDS011;2010;48.194;16.394;2023-06-10T06:33:41;26.03;;;21.90;;
3991;SDS011;2010;48.194;16.394;2023-06-10T06:36:12;29.10;;;23.00;;
3991;SDS011;2010;48.194;16.394;2023-06-10T06:38:47;24.90;;;20.77;;
3991;SDS011;2010;48.194;16.394;2023-06-10T06:41:22;23.13;;;20.73;;
3991;SDS011;2010;48.194;16.394;2023-06-10T06:43:53;26.83;;;21.23;;
3991;SDS011;2010;48.194;16.394;2023-06-10T06:46:34;24.93;;;21.17;;
3991;SDS011;2010;48.194;16.394;2023-06-10T06:49:03;25.30;;;21.23;;
3991;SDS011;2010;48.194;16.394;2023-06-10T06:51:32;27.43;;;21.80;;
3991;SDS011;2010;48.194;16.394;2023-06-10T06:54:04;26.80;;;21.23;;
3991;SDS011;2010;48.194;16.394;2023-06-10T06:56:33;23.23;;;20.63;;
3991;SDS011;2010;48.194;16.394;2023-06-10T06:59:07;22.70;;;20.10;;
3991;SDS011;2010;48.194;16.394;2023-06-10T07:01:44;25.07;;;19.80;;
3991;SDS011;2010;48.194;16.394;2023-06-10T07:04:21;26.30;;;20.80;;
3991;SDS011;2010;48.194;16.394;2023-06-10T07:06:52;24.60;;;18.53;;
3991;SDS011;2010;48.194;16.394;2023-06-10T07:09:28;22.47;;;19.20;;
3991;SDS011;2010;48.194;16.394;2023-06-10T07:11:56;27.37;;;21.70;;
3991;SDS011;2010;48.194;16.394;2023-06-10T07:14:26;26.50;;;22.40;;
3991;SDS011;2010;48.194;16.394;2023-06-10T07:17:01;25.23;;;22.07;;
3991;SDS011;2010;48.194;16.394;2023-06-10T07:19:31;25.07;;;21.40;;
3991;SDS011;2010;48.194;16.394;2023-06-10T07:22:00;23.90;;;19.27;;
3991;SDS011;2010;48.194;16.394;2023-06-10T07:24:40;23.17;;;19.90;;
3991;SDS011;2010;48.194;16.394;2023-06-10T07:27:12;22.30;;;19.87;;
3991;SDS011;2010;48.194;16.394;2023-06-10T07:29:49;21.67;;;18.83;;
3991;SDS011;2010;48.194;16.394;2023-06-10T07:32:29;23.07;;;19.70;;
3991;SDS011;2010;48.194;16.394;2023-06-10T07:35:02;24.03;;;20.77;;
3991;SDS011;2010;48.194;16.394;2023-06-10T07:37:31;29.70;;;20.53;;
3991;SDS011;2010;48.194;16.394;2023-06-10T07:40:03;22.73;;;19.70;;
3991;SDS011;2010;48.194;16.394;2023-06-10T07:42:34;20.83;;;18.60;;
3991;SDS011;2010;48.194;16.394;2023-06-10T07:45:04;22.27;;;19.87;;
3991;SDS011;2010;48.194;16.394;2023-06-10T07:47:38;23.27;;;18.53;;
3991;SDS011;2010;48.194;16.394;2023-06-10T07:50:08;22.77;;;19.40;;
3991;SDS011;2010;48.194;16.394;2023-06-10T07:52:38;19.33;;;17.00;;
3991;SDS011;2010;48.194;16.394;2023-06-10T07:55:15;21.60;;;18.37;;
3991;SDS011;2010;48.194;16.394;2023-06-10T07:57:58;21.17;;;17.40;;
3991;SDS011;2010;48.194;16.394;2023-06-10T08:00:28;23.13;;;18.47;;
3991;SDS011;2010;48.194;16.394;2023-06-10T08:03:02;24.47;;;18.23;;
3991;SDS011;2010;48.194;16.394;2023-06-10T08:05:34;21.77;;;19.13;;
3991;SDS011;2010;48.194;16.394;2023-06-10T08:08:10;23.07;;;20.33;;
3991;SDS011;2010;48.194;16.394;2023-06-10T08:10:40;21.37;;;19.10;;
3991;SDS011;2010;48.194;16.394;2023-06-10T08:13:11;21.00;;;18.57;;
3991;SDS011;2010;48.194;16.394;2023-06-10T08:15:48;20.30;;;18.10;;
3991;SDS011;2010;48.194;16.394;2023-06-10T08:18:27;20.17;;;18.10;;
3991;SDS011;2010;48.194;16.394;2023-06-10T08:21:01;26.20;;;19.70;;
3991;SDS011;2010;48.194;16.394;2023-06-10T08:23:44;19.90;;;17.90;;
3991;SDS011;2010;48.194;16.394;2023-06-10T08:26:14;20.87;;;18.50;;
3991;SDS011;2010;48.194;16.394;2023-06-10T08:28:45;21.63;;;19.40;;
3991;SDS011;2010;48.194;16.394;2023-06-10T08:31:17;21.87;;;18.83;;
3991;SDS011;2010;48.194;16.394;2023-06-10T08:33:50;21.60;;;19.37;;
3991;SDS011;2010;48.194;16.394;2023-06-10T08:36:23;26.43;;;20.60;;
3991;SDS011;2010;48.194;16.394;2023-06-10T08:38:52;21.97;;;19.67;;
3991;SDS011;2010;48.194;16.394;2023-06-10T08:41:24;23.87;;;20.30;;
3991;SDS011;2010;48.194;16.394;2023-06-10T08:43:54;20.50;;;18.07;;
3991;SDS011;2010;48.194;16.394;2023-06-10T08:46:31;20.27;;;18.03;;
3991;SDS011;2010;48.194;16.394;2023-06-10T08:49:14;25.47;;;19.33;;
3991;SDS011;2010;48.194;16.394;2023-06-10T08:51:48;23.47;;;20.27;;
3991;SDS011;2010;48.194;16.394;2023-06-10T08:54:21;24.17;;;18.83;;
3991;SDS011;2010;48.194;16.394;2023-06-10T08:56:56;20.40;;;18.30;;
3991;SDS011;2010;48.194;16.394;2023-06-10T08:59:30;21.80;;;18.60;;
3991;SDS011;2010;48.194;16.394;2023-06-10T09:01:59;22.17;;;19.87;;
3991;SDS011;2010;48.194;16.394;2023-06-10T09:04:31;25.53;;;19.83;;
3991;SDS011;2010;48.194;16.394;2023-06-10T09:07:08;20.53;;;18.37;;
3991;SDS011;2010;48.194;16.394;2023-06-10T09:09:36;21.27;;;18.23;;
3991;SDS011;2010;48.194;16.394;2023-06-10T09:12:08;19.60;;;16.60;;
3991;SDS011;2010;48.194;16.394;2023-06-10T09:14:37;21.40;;;19.20;;
3991;SDS011;2010;48.194;16.394;2023-06-10T09:17:10;20.10;;;18.10;;
3991;SDS011;2010;48.194;16.394;2023-06-10T09:19:48;22.00;;;17.77;;
3991;SDS011;2010;48.194;16.394;2023-06-10T09:22:26;17.77;;;15.83;;
3991;SDS011;2010;48.194;16.394;2023-06-10T09:25:02;18.40;;;16.60;;
3991;SDS011;2010;48.194;16.394;2023-06-10T09:27:33;18.30;;;16.13;;
3991;SDS011;2010;48.194;16.394;2023-06-10T09:30:24;20.10;;;17.57;;
3991;SDS011;2010;48.194;16.394;2023-06-10T09:32:55;19.43;;;16.30;;
3991;SDS011;2010;48.194;16.394;2023-06-10T09:35:31;19.93;;;17.63;;
3991;SDS011;2010;48.194;16.394;2023-06-10T09:38:14;18.17;;;16.27;;
3991;SDS011;2010;48.194;16.394;2023-06-10T09:40:48;17.30;;;15.57;;
3991;SDS011;2010;48.194;16.394;2023-06-10T09:43:17;20.10;;;16.27;;
3991;SDS011;2010;48.194;16.394;2023-06-10T09:45:47;17.07;;;15.27;;
3991;SDS011;2010;48.194;16.394;2023-06-10T09:48:20;16.07;;;14.47;;
3991;SDS011;2010;48.194;16.394;2023-06-10T09:51:05;15.70;;;14.13;;
3991;SDS011;2010;48.194;16.394;2023-06-10T09:53:42;17.53;;;15.63;;
3991;SDS011;2010;48.194;16.394;2023-06-10T09:56:19;16.93;;;15.10;;
3991;SDS011;2010;48.194;16.394;2023-06-10T09:58:58;16.83;;;15.23;;
3991;SDS011;2010;48.194;16.394;2023-06-10T10:01:36;17.80;;;14.20;;
3991;SDS011;2010;48.194;16.394;2023-06-10T10:04:08;16.13;;;14.50;;
3991;SDS011;2010;48.194;16.394;2023-06-10T10:06:54;15.27;;;13.37;;
3991;SDS011;2010;48.194;16.394;2023-06-10T10:09:25;14.77;;;13.27;;
3991;SDS011;2010;48.194;16.394;2023-06-10T10:11:53;16.83;;;15.13;;
3991;SDS011;2010;48.194;16.394;2023-06-10T10:14:25;17.67;;;15.20;;
3991;SDS011;2010;48.194;16.394;2023-06-10T10:16:57;16.07;;;14.50;;
3991;SDS011;2010;48.194;16.394;2023-06-10T10:19:30;18.87;;;13.40;;
3991;SDS011;2010;48.194;16.394;2023-06-10T10:22:03;16.43;;;14.73;;
3991;SDS011;2010;48.194;16.394;2023-06-10T10:24:40;17.57;;;15.30;;
3991;SDS011;2010;48.194;16.394;2023-06-10T10:27:18;13.33;;;11.93;;
3991;SDS011;2010;48.194;16.394;2023-06-10T10:29:51;13.40;;;12.07;;
3991;SDS011;2010;48.194;16.394;2023-06-10T10:32:35;15.67;;;13.97;;
3991;SDS011;2010;48.194;16.394;2023-06-10T10:35:16;18.20;;;12.40;;
3991;SDS011;2010;48.194;16.394;2023-06-10T10:38:00;12.67;;;11.37;;
3991;SDS011;2010;48.194;16.394;2023-06-10T10:40:32;12.03;;;10.93;;
3991;SDS011;2010;48.194;16.394;2023-06-10T10:43:02;14.10;;;12.80;;
3991;SDS011;2010;48.194;16.394;2023-06-10T10:45:40;13.30;;;12.00;;
3991;SDS011;2010;48.194;16.394;2023-06-10T10:48:11;13.63;;;12.33;;
3991;SDS011;2010;48.194;16.394;2023-06-10T10:50:59;14.03;;;12.30;;
3991;SDS011;2010;48.194;16.394;2023-06-10T10:53:30;13.27;;;11.97;;
3991;SDS011;2010;48.194;16.394;2023-06-10T10:56:12;13.60;;;12.20;;
3991;SDS011;2010;48.194;16.394;2023-06-10T10:59:01;15.60;;;11.17;;
3991;SDS011;2010;48.194;16.394;2023-06-10T11:01:43;12.93;;;11.73;;
3991;SDS011;2010;48.194;16.394;2023-06-10T11:04:15;13.20;;;11.83;;
3991;SDS011;2010;48.194;16.394;2023-06-10T11:06:52;12.03;;;10.93;;
3991;SDS011;2010;48.194;16.394;2023-06-10T11:09:28;12.93;;;11.63;;
3991;SDS011;2010;48.194;16.394;2023-06-10T11:11:57;11.73;;;10.60;;
3991;SDS011;2010;48.194;16.394;2023-06-10T11:14:30;11.63;;;10.63;;
3991;SDS011;2010;48.194;16.394;2023-06-10T11:17:03;13.33;;;12.10;;
3991;SDS011;2010;48.194;16.394;2023-06-10T11:19:49;12.20;;;11.00;;
3991;SDS011;2010;48.194;16.394;2023-06-10T11:22:18;11.97;;;10.70;;
3991;SDS011;2010;48.194;16.394;2023-06-10T11:24:57;12.73;;;11.50;;
3991;SDS011;2010;48.194;16.394;2023-06-10T11:27:37;11.50;;;10.40;;
3991;SDS011;2010;48.194;16.394;2023-06-10T11:30:18;10.83;;;9.93;;
3991;SDS011;2010;48.194;16.394;2023-06-10T11:32:50;10.30;;;9.23;;
3991;SDS011;2010;48.194;16.394;2023-06-10T11:35:23;11.20;;;10.30;;
3991;SDS011;2010;48.194;16.394;2023-06-10T11:37:53;10.63;;;9.60;;
3991;SDS011;2010;48.194;16.394;2023-06-10T11:40:28;10.60;;;9.63;;
3991;SDS011;2010;48.194;16.394;2023-06-10T11:42:58;9.60;;;8.80;;
3991;SDS011;2010;48.194;16.394;2023-06-10T11:45:30;11.67;;;10.50;;
3991;SDS011;2010;48.194;16.394;2023-06-10T11:48:02;10.50;;;9.53;;
3991;SDS011;2010;48.194;16.394;2023-06-10T11:50:32;9.97;;;9.07;;
3991;SDS011;2010;48.194;16.394;2023-06-10T11:53:13;9.73;;;8.93;;
3991;SDS011;2010;48.194;16.394;2023-06-10T11:55:50;10.33;;;9.13;;
3991;SDS011;2010;48.194;16.394;2023-06-10T11:58:22;10.30;;;9.43;;
3991;SDS011;2010;48.194;16.394;2023-06-10T12:00:57;12.20;;;9.50;;
3991;SDS011;2010;48.194;16.394;2023-06-10T12:03:35;10.40;;;9.30;;
3991;SDS011;2010;48.194;16.394;2023-06-10T12:06:05;11.83;;;10.20;;
3991;SDS011;2010;48.194;16.394;2023-06-10T12:08:36;11.73;;;10.73;;
3991;SDS011;2010;48.194;16.394;2023-06-10T12:11:14;10.90;;;9.90;;
3991;SDS011;2010;48.194;16.394;2023-06-10T12:13:47;11.10;;;9.90;;
3991;SDS011;2010;48.194;16.394;2023-06-10T12:16:18;10.30;;;9.40;;
3991;SDS011;2010;48.194;16.394;2023-06-10T12:18:47;10.67;;;9.53;;
3991;SDS011;2010;48.194;16.394;2023-06-10T12:21:25;10.00;;;8.57;;
3991;SDS011;2010;48.194;16.394;2023-06-10T12:24:10;9.30;;;8.40;;
3991;SDS011;2010;48.194;16.394;2023-06-10T12:26:44;10.03;;;8.97;;
3991;SDS011;2010;48.194;16.394;2023-06-10T12:29:19;10.23;;;9.20;;
3991;SDS011;2010;48.194;16.394;2023-06-10T12:32:09;14.43;;;10.27;;
3991;SDS011;2010;48.194;16.394;2023-06-10T12:34:46;11.80;;;9.10;;
3991;SDS011;2010;48.194;16.394;2023-06-10T12:37:18;10.43;;;9.53;;
3991;SDS011;2010;48.194;16.394;2023-06-10T12:39:50;9.37;;;8.50;;
3991;SDS011;2010;48.194;16.394;2023-06-10T12:42:26;12.87;;;10.43;;
3991;SDS011;2010;48.194;16.394;2023-06-10T12:44:55;11.47;;;10.43;;
3991;SDS011;2010;48.194;16.394;2023-06-10T12:47:31;12.20;;;11.00;;
3991;SDS011;2010;48.194;16.394;2023-06-10T12:50:03;11.77;;;10.50;;
3991;SDS011;2010;48.194;16.394;2023-06-10T12:52:33;10.90;;;8.80;;
3991;SDS011;2010;48.194;16.394;2023-06-10T12:55:07;9.60;;;8.60;;
3991;SDS011;2010;48.194;16.394;2023-06-10T12:57:55;10.13;;;9.23;;
3991;SDS011;2010;48.194;16.394;2023-06-10T13:00:27;12.20;;;10.93;;
3991;SDS011;2010;48.194;16.394;2023-06-10T13:03:04;13.00;;;10.93;;
3991;SDS011;2010;48.194;16.394;2023-06-10T13:05:49;14.50;;;13.10;;
3991;SDS011;2010;48.194;16.394;2023-06-10T13:08:20;13.63;;;12.33;;
3991;SDS011;2010;48.194;16.394;2023-06-10T13:10:50;13.07;;;11.63;;
3991;SDS011;2010;48.194;16.394;2023-06-10T13:13:28;13.00;;;11.70;;
3991;SDS011;2010;48.194;16.394;2023-06-10T13:15:57;12.87;;;11.60;;
3991;SDS011;2010;48.194;16.394;2023-06-10T13:18:33;12.20;;;10.93;;
3991;SDS011;2010;48.194;16.394;2023-06-10T13:21:05;12.70;;;11.50;;
3991;SDS011;2010;48.194;16.394;2023-06-10T13:23:43;11.10;;;10.10;;
3991;SDS011;2010;48.194;16.394;2023-06-10T13:26:15;10.43;;;9.53;;
3991;SDS011;2010;48.194;16.394;2023-06-10T13:28:45;10.40;;;9.30;;
3991;SDS011;2010;48.194;16.394;2023-06-10T13:31:16;10.43;;;9.33;;
3991;SDS011;2010;48.194;16.394;2023-06-10T13:33:48;10.13;;;9.23;;
3991;SDS011;2010;48.194;16.394;2023-06-10T13:36:20;11.40;;;10.20;;
3991;SDS011;2010;48.194;16.394;2023-06-10T13:38:56;10.93;;;9.93;;
3991;SDS011;2010;48.194;16.394;2023-06-10T13:41:25;11.20;;;10.23;;
3991;SDS011;2010;48.194;16.394;2023-06-10T13:44:00;11.93;;;10.73;;
3991;SDS011;2010;48.194;16.394;2023-06-10T13:46:32;11.13;;;10.13;;
3991;SDS011;2010;48.194;16.394;2023-06-10T13:49:08;11.60;;;10.50;;
3991;SDS011;2010;48.194;16.394;2023-06-10T13:51:42;13.70;;;11.00;;
3991;SDS011;2010;48.194;16.394;2023-06-10T13:54:14;11.67;;;10.57;;
3991;SDS011;2010;48.194;16.394;2023-06-10T13:56:51;11.63;;;10.57;;
3991;SDS011;2010;48.194;16.394;2023-06-10T13:59:21;11.90;;;10.80;;
3991;SDS011;2010;48.194;16.394;2023-06-10T14:01:57;13.60;;;12.30;;
3991;SDS011;2010;48.194;16.394;2023-06-10T14:04:29;15.80;;;12.70;;
3991;SDS011;2010;48.194;16.394;2023-06-10T14:06:58;12.87;;;11.67;;
3991;SDS011;2010;48.194;16.394;2023-06-10T14:09:29;15.20;;;11.90;;
3991;SDS011;2010;48.194;16.394;2023-06-10T14:12:04;14.67;;;12.60;;
3991;SDS011;2010;48.194;16.394;2023-06-10T14:14:37;12.47;;;11.23;;
3991;SDS011;2010;48.194;16.394;2023-06-10T14:17:09;13.83;;;12.53;;
3991;SDS011;2010;48.194;16.394;2023-06-10T14:19:38;13.10;;;11.90;;
3991;SDS011;2010;48.194;16.394;2023-06-10T14:22:09;13.13;;;11.90;;
3991;SDS011;2010;48.194;16.394;2023-06-10T14:24:37;12.47;;;11.20;;
3991;SDS011;2010;48.194;16.394;2023-06-10T14:27:07;12.90;;;11.60;;
3991;SDS011;2010;48.194;16.394;2023-06-10T14:29:47;13.30;;;12.03;;
3991;SDS011;2010;48.194;16.394;2023-06-10T14:32:17;12.00;;;10.90;;
3991;SDS011;2010;48.194;16.394;2023-06-10T14:34:54;13.90;;;12.50;;
3991;SDS011;2010;48.194;16.394;2023-06-10T14:37:29;13.77;;;12.47;;
3991;SDS011;2010;48.194;16.394;2023-06-10T14:40:03;14.37;;;12.97;;
3991;SDS011;2010;48.194;16.394;2023-06-10T14:42:35;16.10;;;13.73;;
3991;SDS011;2010;48.194;16.394;2023-06-10T14:45:13;13.83;;;12.30;;
3991;SDS011;2010;48.194;16.394;2023-06-10T14:47:55;11.83;;;10.60;;
3991;SDS011;2010;48.194;16.394;2023-06-10T14:50:24;12.80;;;11.60;;
3991;SDS011;2010;48.194;16.394;2023-06-10T14:52:55;12.37;;;11.27;;
3991;SDS011;2010;48.194;16.394;2023-06-10T14:55:26;12.97;;;11.60;;
3991;SDS011;2010;48.194;16.394;2023-06-10T14:57:55;13.60;;;12.20;;
3991;SDS011;2010;48.194;16.394;2023-06-10T15:00:33;13.77;;;12.40;;
3991;SDS011;2010;48.194;16.394;2023-06-10T15:03:02;13.77;;;12.47;;
3991;SDS011;2010;48.194;16.394;2023-06-10T15:05:38;13.53;;;11.67;;
3991;SDS011;2010;48.194;16.394;2023-06-10T15:08:10;14.43;;;11.80;;
3991;SDS011;2010;48.194;16.394;2023-06-10T15:10:39;11.77;;;10.70;;
3991;SDS011;2010;48.194;16.394;2023-06-10T15:13:16;11.90;;;10.70;;
3991;SDS011;2010;48.194;16.394;2023-06-10T15:15:51;11.50;;;10.40;;
3991;SDS011;2010;48.194;16.394;2023-06-10T15:18:19;11.37;;;10.27;;
3991;SDS011;2010;48.194;16.394;2023-06-10T15:20:51;11.33;;;10.33;;